Time;durP1;ratioP1;P1;durP2;ratioP2;P2;SDS_P1;SDS_P2;PMS_P1;PMS_P2;Temp;Humidity;BMP_temperature;BMP_pressure;BME280_temperature;BME280_humidity;BME280_pressure;Samples;Min_cycle;Max_cycle;Signal;HPM_P1;HPM_P2
2023/03/23 00:00:05;;;;;;;;;;;17.00;62.30;;;;;;4992324;28;19937;-90
2023/03/23 00:02:35;;;;;;;;;;;17.00;62.20;;;;;;4981546;28;19988;-90
2023/03/23 00:05:07;;;;;;;;;;;17.00;62.20;;;;;;5004148;28;19917;-90
2023/03/23 00:07:33;;;;;;;;;;;16.90;62.40;;;;;;5023842;28;19968;-91
2023/03/23 00:10:02;;;;;;;;;;;16.90;62.50;;;;;;4991386;28;19968;-89
2023/03/23 00:12:34;;;;;;;;;;;16.80;62.70;;;;;;4997796;28;19920;-91
2023/03/23 00:15:00;;;;;;;;;;;16.80;62.70;;;;;;5001635;28;19925;-89
2023/03/23 00:17:26;;;;;;;;;;;16.80;62.80;;;;;;5012591;28;19959;-88
2023/03/23 00:19:52;;;;;;;;;;;16.70;62.70;;;;;;5032128;28;19913;-90
2023/03/23 00:22:20;;;;;;;;;;;16.70;62.90;;;;;;5013885;28;20423;-91
2023/03/23 00:24:47;;;;;;;;;;;16.70;63.10;;;;;;5028098;28;20494;-89
2023/03/23 00:27:14;;;;;;;;;;;16.70;63.20;;;;;;5011080;28;19917;-90
2023/03/23 00:29:40;;;;;;;;;;;16.70;63.40;;;;;;5031892;28;19917;-89
2023/03/23 00:32:06;;;;;;;;;;;16.70;63.70;;;;;;5031754;28;19971;-89
2023/03/23 00:34:33;;;;;;;;;;;16.60;63.80;;;;;;5005871;28;19960;-91
2023/03/23 00:36:59;;;;;;;;;;;16.60;64.10;;;;;;5006028;28;19925;-89
2023/03/23 00:39:26;;;;;;;;;;;16.60;64.10;;;;;;5029934;28;19908;-88
2023/03/23 00:41:53;;;;;;;;;;;16.60;64.40;;;;;;5031049;28;19917;-90
2023/03/23 00:44:19;;;;;;;;;;;16.60;64.40;;;;;;5031079;28;19932;-90
2023/03/23 00:46:48;;;;;;;;;;;16.60;64.30;;;;;;5030719;28;20368;-90
2023/03/23 00:49:15;;;;;;;;;;;16.60;64.50;;;;;;5030668;28;19928;-90
2023/03/23 00:51:41;;;;;;;;;;;16.60;64.50;;;;;;5031085;28;19925;-89
2023/03/23 00:54:07;;;;;;;;;;;16.50;64.60;;;;;;5030838;28;20519;-91
2023/03/23 00:56:33;;;;;;;;;;;16.50;64.60;;;;;;5013103;28;20012;-88
2023/03/23 00:58:59;;;;;;;;;;;16.40;64.60;;;;;;5030388;28;20055;-89
2023/03/23 01:01:24;;;;;;;;;;;16.40;64.70;;;;;;5031397;28;19975;-90
2023/03/23 01:03:50;;;;;;;;;;;16.40;64.90;;;;;;5030000;28;19913;-88
2023/03/23 01:06:16;;;;;;;;;;;16.40;65.10;;;;;;5030402;28;19924;-89
2023/03/23 01:08:45;;;;;;;;;;;16.50;65.10;;;;;;5030804;28;20025;-88
2023/03/23 01:11:14;;;;;;;;;;;16.50;65.00;;;;;;5009056;28;19921;-89
2023/03/23 01:13:41;;;;;;;;;;;16.50;65.10;;;;;;4993169;28;20370;-90
2023/03/23 01:16:07;;;;;;;;;;;16.60;64.90;;;;;;5010474;28;19921;-88
2023/03/23 01:18:33;;;;;;;;;;;16.50;65.00;;;;;;5008030;28;19979;-91
2023/03/23 01:21:03;;;;;;;;;;;16.50;64.90;;;;;;4992849;28;19972;-87
2023/03/23 01:23:28;;;;;;;;;;;16.60;64.90;;;;;;5010251;28;19913;-89
2023/03/23 01:25:57;;;;;;;;;;;16.50;65.10;;;;;;4981041;28;20420;-88
2023/03/23 01:28:27;;;;;;;;;;;16.70;65.00;;;;;;5008099;28;20034;-89
2023/03/23 01:30:53;;;;;;;;;;;16.70;64.80;;;;;;4993988;28;19952;-89
2023/03/23 01:33:18;;;;;;;;;;;16.80;64.80;;;;;;4990372;28;20384;-89
2023/03/23 01:35:47;;;;;;;;;;;16.80;64.70;;;;;;5008864;28;19944;-90
2023/03/23 01:38:12;;;;;;;;;;;16.80;64.60;;;;;;5008365;28;19914;-91
2023/03/23 01:40:38;;;;;;;;;;;16.70;64.20;;;;;;5008300;28;19960;-89
2023/03/23 01:43:08;;;;;;;;;;;16.70;64.40;;;;;;5008149;28;20334;-88
2023/03/23 01:45:36;;;;;;;;;;;16.80;64.40;;;;;;5008731;28;19918;-92
2023/03/23 01:48:04;;;;;;;;;;;16.70;64.40;;;;;;5008844;28;20322;-92
2023/03/23 01:50:34;;;;;;;;;;;16.70;64.50;;;;;;5005858;28;19939;-91
2023/03/23 01:53:01;;;;;;;;;;;16.70;64.50;;;;;;4991315;28;19918;-89
2023/03/23 01:55:27;;;;;;;;;;;16.70;64.40;;;;;;5008388;28;20025;-90
2023/03/23 01:57:53;;;;;;;;;;;16.70;64.60;;;;;;5008112;28;20008;-89
2023/03/23 02:00:21;;;;;;;;;;;16.60;64.50;;;;;;5006345;28;20240;-92
2023/03/23 02:02:48;;;;;;;;;;;16.60;64.70;;;;;;5008402;28;19922;-89
2023/03/23 02:05:19;;;;;;;;;;;16.60;64.70;;;;;;5008182;28;19920;-88
2023/03/23 02:07:46;;;;;;;;;;;16.60;64.70;;;;;;5007653;28;19925;-89
2023/03/23 02:10:11;;;;;;;;;;;16.70;64.70;;;;;;5010481;28;19926;-90
2023/03/23 02:12:37;;;;;;;;;;;16.60;64.70;;;;;;5008455;28;19914;-92
2023/03/23 02:15:04;;;;;;;;;;;16.70;64.60;;;;;;4989539;28;19963;-89
2023/03/23 02:17:42;;;;;;;;;;;16.80;64.50;;;;;;5008324;28;19914;-92
2023/03/23 02:20:07;;;;;;;;;;;16.80;64.60;;;;;;4990736;28;19917;-88
2023/03/23 02:22:36;;;;;;;;;;;16.90;64.30;;;;;;4992103;28;20040;-90
2023/03/23 02:25:22;;;;;;;;;;;16.90;64.30;;;;;;5008701;28;19921;-88
2023/03/23 02:27:48;;;;;;;;;;;16.90;64.30;;;;;;4993276;28;20284;-90
2023/03/23 02:30:32;;;;;;;;;;;16.80;64.60;;;;;;4983351;28;19918;-89
2023/03/23 02:33:17;;;;;;;;;;;16.80;64.10;;;;;;4977197;28;19936;-90
2023/03/23 02:35:50;;;;;;;;;;;17.00;63.80;;;;;;4995477;28;19913;-88
2023/03/23 02:38:17;;;;;;;;;;;17.00;64.10;;;;;;4995148;28;19918;-90
2023/03/23 02:40:46;;;;;;;;;;;17.10;64.00;;;;;;5015273;28;20361;-93
2023/03/23 02:43:16;;;;;;;;;;;17.10;63.90;;;;;;5013410;28;19996;-91
2023/03/23 02:45:43;;;;;;;;;;;17.00;64.00;;;;;;5008770;28;19924;-92
2023/03/23 02:48:09;;;;;;;;;;;16.90;63.90;;;;;;5010525;28;20346;-89
2023/03/23 02:50:36;;;;;;;;;;;16.80;63.90;;;;;;4993213;28;19917;-90
2023/03/23 02:53:03;;;;;;;;;;;16.70;64.10;;;;;;5011011;28;20483;-90
2023/03/23 02:55:29;;;;;;;;;;;16.70;64.00;;;;;;5012503;28;19945;-92
2023/03/23 02:57:55;;;;;;;;;;;16.60;64.20;;;;;;5011784;28;19952;-88
2023/03/23 03:00:23;;;;;;;;;;;16.70;64.50;;;;;;5002223;28;20034;-89
2023/03/23 03:02:53;;;;;;;;;;;16.70;64.30;;;;;;5011241;28;19917;-88
2023/03/23 03:05:22;;;;;;;;;;;16.60;64.50;;;;;;5009354;28;20315;-89
2023/03/23 03:07:48;;;;;;;;;;;16.60;64.10;;;;;;5011053;28;19921;-88
2023/03/23 03:10:17;;;;;;;;;;;16.70;64.20;;;;;;4991469;28;20026;-90
2023/03/23 03:12:50;;;;;;;;;;;16.70;64.30;;;;;;4995685;28;19914;-88
2023/03/23 03:15:33;;;;;;;;;;;16.70;63.90;;;;;;5010472;28;20415;-92
2023/03/23 03:17:59;;;;;;;;;;;16.70;64.10;;;;;;5011364;28;20014;-92
2023/03/23 03:20:26;;;;;;;;;;;16.70;63.70;;;;;;4993564;28;20002;-92
2023/03/23 03:22:52;;;;;;;;;;;16.70;63.80;;;;;;5013269;28;20008;-89
2023/03/23 03:25:19;;;;;;;;;;;16.70;63.40;;;;;;5010229;28;20038;-90
2023/03/23 03:27:49;;;;;;;;;;;16.80;63.80;;;;;;5018335;28;19917;-89
2023/03/23 03:30:16;;;;;;;;;;;16.80;63.40;;;;;;5012605;28;20361;-92
2023/03/23 03:32:48;;;;;;;;;;;16.80;63.40;;;;;;5008377;28;20341;-89
2023/03/23 03:35:15;;;;;;;;;;;16.80;63.20;;;;;;4994880;28;19980;-92
2023/03/23 03:37:41;;;;;;;;;;;16.80;63.20;;;;;;4994996;28;19960;-89
2023/03/23 03:40:11;;;;;;;;;;;16.80;62.90;;;;;;5013603;28;19914;-89
2023/03/23 03:42:40;;;;;;;;;;;16.80;63.20;;;;;;4986352;28;19941;-91
2023/03/23 03:45:07;;;;;;;;;;;16.80;62.90;;;;;;4973391;28;19952;-90
2023/03/23 03:47:33;;;;;;;;;;;16.60;63.20;;;;;;4974713;28;20387;-90
2023/03/23 03:49:59;;;;;;;;;;;16.50;63.40;;;;;;4992271;28;19918;-89
2023/03/23 03:52:25;;;;;;;;;;;16.50;63.50;;;;;;4992169;28;19920;-90
2023/03/23 03:54:51;;;;;;;;;;;16.50;63.50;;;;;;4988064;28;19917;-90
2023/03/23 03:57:17;;;;;;;;;;;16.50;63.70;;;;;;5011906;28;19918;-92
2023/03/23 03:59:43;;;;;;;;;;;16.50;63.40;;;;;;5009638;28;19921;-89
2023/03/23 04:02:09;;;;;;;;;;;16.40;63.60;;;;;;5010404;28;19918;-90
2023/03/23 04:04:35;;;;;;;;;;;16.50;63.80;;;;;;5009953;28;19936;-93
2023/03/23 04:07:02;;;;;;;;;;;16.40;63.70;;;;;;4992708;28;20438;-90
2023/03/23 04:09:28;;;;;;;;;;;16.50;63.60;;;;;;5010303;28;19929;-91
2023/03/23 04:11:54;;;;;;;;;;;16.50;63.70;;;;;;5009701;28;19922;-93
2023/03/23 04:14:19;;;;;;;;;;;16.50;63.50;;;;;;4993676;28;19909;-92
2023/03/23 04:16:45;;;;;;;;;;;16.60;63.60;;;;;;5011259;28;20013;-91
2023/03/23 04:19:12;;;;;;;;;;;16.60;63.60;;;;;;5013121;28;20324;-93
2023/03/23 04:21:38;;;;;;;;;;;16.50;63.60;;;;;;4983385;28;20094;-89
2023/03/23 04:24:06;;;;;;;;;;;16.70;63.70;;;;;;4992087;28;20287;-88
2023/03/23 04:26:32;;;;;;;;;;;16.70;63.60;;;;;;4992234;28;19957;-90
2023/03/23 04:29:00;;;;;;;;;;;16.80;63.70;;;;;;4994019;28;19960;-91
2023/03/23 04:31:25;;;;;;;;;;;16.60;63.30;;;;;;4993045;28;19918;-90
2023/03/23 04:33:54;;;;;;;;;;;16.70;63.20;;;;;;5010758;28;19984;-90
2023/03/23 04:36:22;;;;;;;;;;;16.70;63.30;;;;;;4992889;28;19963;-90
2023/03/23 04:38:47;;;;;;;;;;;16.80;63.10;;;;;;4993525;28;19937;-90
2023/03/23 04:41:13;;;;;;;;;;;16.80;63.20;;;;;;5011701;28;19924;-92
2023/03/23 04:43:42;;;;;;;;;;;16.80;63.00;;;;;;4994543;28;19980;-88
2023/03/23 04:46:10;;;;;;;;;;;16.90;63.20;;;;;;5010544;28;19918;-91
2023/03/23 04:48:38;;;;;;;;;;;16.90;62.90;;;;;;5013165;28;19964;-90
2023/03/23 04:51:04;;;;;;;;;;;16.90;63.20;;;;;;4992503;28;20272;-91
2023/03/23 04:53:30;;;;;;;;;;;16.80;63.10;;;;;;5010620;28;20278;-89
2023/03/23 04:55:56;;;;;;;;;;;16.90;63.20;;;;;;5010148;28;19924;-90
2023/03/23 04:58:23;;;;;;;;;;;16.80;62.90;;;;;;5010199;28;19910;-89
2023/03/23 05:00:49;;;;;;;;;;;16.90;62.80;;;;;;5010328;28;19918;-89
2023/03/23 05:03:17;;;;;;;;;;;17.00;63.00;;;;;;4993589;28;19921;-91
2023/03/23 05:05:46;;;;;;;;;;;17.10;62.90;;;;;;4994334;28;19922;-89
2023/03/23 05:08:12;;;;;;;;;;;17.10;63.00;;;;;;4995279;28;19922;-90
2023/03/23 05:10:38;;;;;;;;;;;17.20;62.80;;;;;;5006453;28;19928;-89
2023/03/23 05:13:05;;;;;;;;;;;17.20;62.80;;;;;;5029735;28;19917;-89
2023/03/23 05:15:30;;;;;;;;;;;17.20;62.80;;;;;;5010047;28;20269;-90
2023/03/23 05:17:56;;;;;;;;;;;17.20;62.60;;;;;;4992885;28;19914;-89
2023/03/23 05:20:22;;;;;;;;;;;17.20;62.50;;;;;;5009346;28;19967;-90
2023/03/23 05:22:49;;;;;;;;;;;17.20;62.50;;;;;;4992857;28;19910;-89
2023/03/23 05:25:15;;;;;;;;;;;17.20;62.20;;;;;;4992022;28;19918;-90
2023/03/23 05:27:48;;;;;;;;;;;17.20;62.20;;;;;;4992502;28;19932;-90
2023/03/23 05:30:16;;;;;;;;;;;17.30;62.10;;;;;;5010065;28;19909;-91
2023/03/23 05:32:42;;;;;;;;;;;17.30;62.10;;;;;;4992060;28;19937;-89
2023/03/23 05:35:08;;;;;;;;;;;17.30;61.90;;;;;;5006884;28;19941;-90
2023/03/23 05:37:33;;;;;;;;;;;17.40;61.90;;;;;;5010590;28;19914;-93
2023/03/23 05:40:04;;;;;;;;;;;17.30;61.60;;;;;;5005240;28;19941;-89
2023/03/23 05:42:30;;;;;;;;;;;17.40;61.50;;;;;;4993606;28;19914;-88
2023/03/23 05:44:56;;;;;;;;;;;17.30;61.20;;;;;;5009995;28;19917;-89
2023/03/23 05:47:22;;;;;;;;;;;17.30;61.00;;;;;;5011518;28;19918;-91
2023/03/23 05:49:47;;;;;;;;;;;17.20;60.70;;;;;;4995031;28;20410;-88
2023/03/23 05:52:14;;;;;;;;;;;17.20;60.70;;;;;;5022714;28;19924;-90
2023/03/23 05:54:41;;;;;;;;;;;17.20;60.80;;;;;;5022861;28;19937;-89
2023/03/23 05:57:08;;;;;;;;;;;17.30;61.00;;;;;;5012617;28;19921;-89
2023/03/23 05:59:34;;;;;;;;;;;17.30;61.10;;;;;;5030165;28;19963;-88
2023/03/23 06:02:00;;;;;;;;;;;17.30;60.70;;;;;;5014629;28;20276;-90
2023/03/23 06:04:26;;;;;;;;;;;17.20;60.90;;;;;;5029911;28;19913;-90
2023/03/23 06:06:52;;;;;;;;;;;17.20;60.80;;;;;;5029664;28;19944;-90
2023/03/23 06:09:18;;;;;;;;;;;17.30;60.80;;;;;;5014870;28;19921;-90
2023/03/23 06:11:44;;;;;;;;;;;17.30;60.70;;;;;;4995864;28;19921;-90
2023/03/23 06:14:09;;;;;;;;;;;17.40;60.70;;;;;;5013243;28;19937;-90
2023/03/23 06:16:35;;;;;;;;;;;17.30;60.90;;;;;;4995866;28;20412;-91
2023/03/23 06:19:03;;;;;;;;;;;17.40;60.90;;;;;;5015044;28;20274;-92
2023/03/23 06:21:30;;;;;;;;;;;17.40;60.70;;;;;;5011770;28;19921;-90
2023/03/23 06:23:56;;;;;;;;;;;17.50;60.70;;;;;;4994795;28;20041;-90
2023/03/23 06:26:23;;;;;;;;;;;17.60;60.50;;;;;;5014804;28;20338;-90
2023/03/23 06:28:49;;;;;;;;;;;17.70;60.40;;;;;;5016103;28;19917;-90
2023/03/23 06:31:17;;;;;;;;;;;17.60;60.00;;;;;;5013922;28;20304;-89
2023/03/23 06:33:43;;;;;;;;;;;17.70;60.00;;;;;;4995989;28;20383;-88
2023/03/23 06:36:11;;;;;;;;;;;17.70;60.10;;;;;;5009933;28;20316;-89
2023/03/23 06:38:37;;;;;;;;;;;17.70;59.80;;;;;;5001579;28;19929;-89
2023/03/23 06:41:03;;;;;;;;;;;17.80;60.30;;;;;;5003287;28;19917;-89
2023/03/23 06:43:28;;;;;;;;;;;17.70;60.00;;;;;;5002464;28;19914;-90
2023/03/23 06:45:54;;;;;;;;;;;17.80;59.70;;;;;;4982955;28;19927;-90
2023/03/23 06:48:19;;;;;;;;;;;17.80;60.00;;;;;;4989638;28;20434;-90
2023/03/23 06:50:46;;;;;;;;;;;17.90;60.00;;;;;;5009946;28;20044;-91
2023/03/23 06:53:12;;;;;;;;;;;18.10;60.50;;;;;;4990233;28;19917;-92
2023/03/23 06:55:38;;;;;;;;;;;18.10;59.70;;;;;;4984916;28;19921;-89
2023/03/23 06:58:05;;;;;;;;;;;18.20;59.90;;;;;;5009340;28;19926;-88
2023/03/23 07:00:31;;;;;;;;;;;18.20;59.40;;;;;;5013662;28;20017;-90
2023/03/23 07:02:57;;;;;;;;;;;18.30;59.10;;;;;;5014101;28;19953;-94
2023/03/23 07:05:23;;;;;;;;;;;18.40;58.60;;;;;;5014748;28;19936;-89
2023/03/23 07:07:49;;;;;;;;;;;18.40;58.50;;;;;;4994277;28;19928;-89
2023/03/23 07:10:15;;;;;;;;;;;18.50;58.20;;;;;;5013674;28;19918;-92
2023/03/23 07:12:41;;;;;;;;;;;18.60;58.40;;;;;;4995024;28;19914;-90
2023/03/23 07:15:10;;;;;;;;;;;18.70;57.70;;;;;;4997840;28;19917;-90
2023/03/23 07:17:35;;;;;;;;;;;18.70;57.80;;;;;;5028474;28;19981;-88
2023/03/23 07:20:02;;;;;;;;;;;18.90;57.70;;;;;;5012097;28;19921;-89
2023/03/23 07:22:29;;;;;;;;;;;19.00;57.60;;;;;;5034785;28;20008;-92
2023/03/23 07:24:55;;;;;;;;;;;19.00;57.00;;;;;;5006281;28;19920;-93
2023/03/23 07:27:20;;;;;;;;;;;19.10;57.00;;;;;;4997053;28;19914;-89
2023/03/23 07:29:46;;;;;;;;;;;19.20;57.70;;;;;;5012708;28;20451;-89
2023/03/23 07:32:13;;;;;;;;;;;19.20;56.60;;;;;;4995749;28;19956;-90
2023/03/23 07:34:39;;;;;;;;;;;19.40;56.90;;;;;;5010085;28;20004;-90
2023/03/23 07:37:06;;;;;;;;;;;19.60;57.30;;;;;;5007909;28;20008;-90
2023/03/23 07:39:35;;;;;;;;;;;20.10;57.20;;;;;;4996422;28;20245;-89
2023/03/23 07:42:01;;;;;;;;;;;20.30;55.50;;;;;;5018230;28;19918;-90
2023/03/23 07:44:27;;;;;;;;;;;20.50;54.60;;;;;;5013901;28;19953;-89
2023/03/23 07:46:52;;;;;;;;;;;20.70;54.10;;;;;;4997498;28;19917;-90
2023/03/23 07:49:18;;;;;;;;;;;20.80;54.20;;;;;;5014500;28;20461;-90
2023/03/23 07:51:44;;;;;;;;;;;20.90;53.20;;;;;;4995379;28;19913;-89
2023/03/23 07:54:10;;;;;;;;;;;21.00;52.00;;;;;;5010451;28;19933;-90
2023/03/23 07:56:36;;;;;;;;;;;21.10;51.20;;;;;;4995163;28;19914;-90
2023/03/23 07:59:05;;;;;;;;;;;21.20;50.90;;;;;;5013113;28;20365;-88
2023/03/23 08:01:31;;;;;;;;;;;21.30;50.50;;;;;;4992348;28;19949;-88
2023/03/23 08:03:57;;;;;;;;;;;21.30;51.00;;;;;;5011878;28;19926;-89
2023/03/23 08:06:26;;;;;;;;;;;21.30;51.00;;;;;;5011634;28;20380;-88
2023/03/23 08:08:52;;;;;;;;;;;21.20;51.00;;;;;;5014139;28;19980;-93
2023/03/23 08:11:18;;;;;;;;;;;21.20;51.20;;;;;;5012937;28;19917;-91
2023/03/23 08:13:44;;;;;;;;;;;21.00;50.00;;;;;;5010099;28;19924;-90
2023/03/23 08:16:10;;;;;;;;;;;20.80;50.00;;;;;;4995674;28;19936;-89
2023/03/23 08:18:36;;;;;;;;;;;20.70;49.60;;;;;;5017347;28;19940;-89
2023/03/23 08:21:04;;;;;;;;;;;20.70;51.00;;;;;;4994570;28;19953;-88
2023/03/23 08:23:30;;;;;;;;;;;20.70;51.20;;;;;;5015147;28;19917;-89
2023/03/23 08:25:56;;;;;;;;;;;20.60;50.90;;;;;;5010610;28;19913;-89
2023/03/23 08:28:22;;;;;;;;;;;20.60;51.10;;;;;;5012775;28;19980;-89
2023/03/23 08:30:48;;;;;;;;;;;20.50;50.40;;;;;;5012923;28;19913;-89
2023/03/23 08:33:14;;;;;;;;;;;20.30;50.20;;;;;;5013198;28;19967;-88
2023/03/23 08:35:39;;;;;;;;;;;20.30;50.90;;;;;;5011931;28;19913;-88
2023/03/23 08:38:05;;;;;;;;;;;20.40;50.80;;;;;;4994100;28;19917;-88
2023/03/23 08:40:32;;;;;;;;;;;20.40;50.20;;;;;;4990608;28;19917;-93
2023/03/23 08:42:58;;;;;;;;;;;20.40;49.80;;;;;;5011385;28;19921;-92
2023/03/23 08:45:24;;;;;;;;;;;20.50;49.40;;;;;;5011445;28;19947;-91
2023/03/23 08:47:51;;;;;;;;;;;20.60;48.90;;;;;;5011984;28;19948;-88
2023/03/23 08:50:19;;;;;;;;;;;20.60;48.80;;;;;;5009284;28;19922;-89
2023/03/23 08:52:45;;;;;;;;;;;20.70;48.80;;;;;;4995781;28;19928;-89
2023/03/23 08:55:12;;;;;;;;;;;20.70;48.80;;;;;;5013048;28;19924;-89
2023/03/23 08:57:38;;;;;;;;;;;20.80;49.00;;;;;;4999746;28;20016;-89
2023/03/23 09:00:13;;;;;;;;;;;20.80;48.60;;;;;;4994895;28;19960;-90
2023/03/23 09:02:39;;;;;;;;;;;20.90;49.00;;;;;;4995098;28;19920;-93
2023/03/23 09:05:06;;;;;;;;;;;20.90;47.50;;;;;;5012409;28;19964;-89
2023/03/23 09:07:45;;;;;;;;;;;20.80;47.50;;;;;;4995703;28;19956;-90
2023/03/23 09:10:11;;;;;;;;;;;21.00;47.30;;;;;;5002969;28;19973;-88
2023/03/23 09:12:37;;;;;;;;;;;21.00;47.50;;;;;;5009866;28;19918;-91
2023/03/23 09:15:08;;;;;;;;;;;21.10;47.10;;;;;;5009938;28;19918;-88
2023/03/23 09:17:35;;;;;;;;;;;21.20;47.20;;;;;;5010430;28;20399;-93
2023/03/23 09:20:00;;;;;;;;;;;21.10;46.70;;;;;;5012368;28;19924;-91
2023/03/23 09:22:26;;;;;;;;;;;21.30;46.40;;;;;;5013045;28;19914;-88
2023/03/23 09:24:53;;;;;;;;;;;21.30;45.70;;;;;;5009688;28;20067;-92
2023/03/23 09:27:19;;;;;;;;;;;21.40;46.20;;;;;;4991864;28;20005;-90
2023/03/23 09:29:48;;;;;;;;;;;21.60;45.60;;;;;;5009790;28;19929;-88
2023/03/23 09:32:14;;;;;;;;;;;21.70;45.00;;;;;;4993001;28;19924;-90
2023/03/23 09:34:43;;;;;;;;;;;21.80;44.80;;;;;;4991338;28;19953;-88
2023/03/23 09:37:09;;;;;;;;;;;21.90;44.60;;;;;;5007612;28;20341;-92
2023/03/23 09:39:42;;;;;;;;;;;22.10;44.70;;;;;;4993473;28;20021;-92
2023/03/23 09:42:23;;;;;;;;;;;22.20;43.80;;;;;;5011884;28;20287;-93
2023/03/23 09:44:55;;;;;;;;;;;22.20;43.10;;;;;;5013717;28;19921;-93
2023/03/23 09:47:40;;;;;;;;;;;21.90;42.70;;;;;;5015067;28;20343;-93
2023/03/23 09:50:10;;;;;;;;;;;22.10;43.10;;;;;;4994859;28;19930;-90
2023/03/23 09:52:35;;;;;;;;;;;22.10;42.90;;;;;;5012633;28;20003;-90
2023/03/23 09:55:03;;;;;;;;;;;22.10;42.40;;;;;;4994824;28;20341;-88
2023/03/23 09:57:38;;;;;;;;;;;22.00;42.50;;;;;;5014296;28;19917;-93
2023/03/23 10:00:14;;;;;;;;;;;22.00;42.40;;;;;;5014825;28;20390;-90
2023/03/23 10:03:06;;;;;;;;;;;22.00;42.50;;;;;;5012247;28;19921;-86
2023/03/23 10:05:36;;;;;;;;;;;22.00;42.80;;;;;;5010697;28;19924;-87
2023/03/23 10:08:09;;;;;;;;;;;21.90;42.40;;;;;;4996141;28;19921;-89
2023/03/23 10:10:39;;;;;;;;;;;21.90;42.40;;;;;;4994566;28;20448;-92
2023/03/23 10:13:12;;;;;;;;;;;22.00;42.50;;;;;;5015228;28;19913;-90
2023/03/23 10:15:39;;;;;;;;;;;22.20;42.50;;;;;;5008331;28;19929;-88
2023/03/23 10:18:17;;;;;;;;;;;22.40;42.50;;;;;;4996339;28;19918;-90
2023/03/23 10:20:46;;;;;;;;;;;22.80;42.40;;;;;;5013371;28;19928;-89
2023/03/23 10:23:17;;;;;;;;;;;23.20;42.10;;;;;;5011249;28;19913;-91
2023/03/23 10:25:48;;;;;;;;;;;23.60;41.20;;;;;;5012258;28;19964;-90
2023/03/23 10:28:17;;;;;;;;;;;24.10;40.60;;;;;;5013813;28;19921;-88
2023/03/23 10:30:46;;;;;;;;;;;24.50;39.50;;;;;;5011266;28;19918;-90
2023/03/23 10:33:16;;;;;;;;;;;25.20;39.00;;;;;;5007517;28;19980;-90
2023/03/23 10:35:46;;;;;;;;;;;25.50;37.10;;;;;;4996032;28;20652;-90
2023/03/23 10:38:18;;;;;;;;;;;25.50;35.80;;;;;;4995375;28;19914;-88
2023/03/23 10:40:48;;;;;;;;;;;25.60;35.50;;;;;;5014952;28;19929;-90
2023/03/23 10:43:13;;;;;;;;;;;25.80;36.50;;;;;;5011766;28;19913;-91
2023/03/23 10:45:40;;;;;;;;;;;25.80;35.40;;;;;;4992202;28;19944;-88
2023/03/23 10:48:11;;;;;;;;;;;26.00;35.50;;;;;;5009883;28;20404;-89
2023/03/23 10:50:37;;;;;;;;;;;26.00;34.40;;;;;;4986580;28;20395;-88
2023/03/23 10:53:11;;;;;;;;;;;25.90;34.50;;;;;;5008781;28;19940;-89
2023/03/23 10:55:40;;;;;;;;;;;26.00;35.10;;;;;;5003997;28;20032;-88
2023/03/23 10:58:13;;;;;;;;;;;26.10;35.00;;;;;;5007655;28;20374;-93
2023/03/23 11:00:46;;;;;;;;;;;26.20;35.00;;;;;;4992811;28;20288;-88
2023/03/23 11:03:15;;;;;;;;;;;25.80;36.20;;;;;;5004603;28;19914;-89
2023/03/23 11:05:43;;;;;;;;;;;24.70;43.30;;;;;;4992647;28;19918;-89
2023/03/23 11:08:13;;;;;;;;;;;23.50;48.00;;;;;;4993583;28;19917;-92
2023/03/23 11:10:40;;;;;;;;;;;22.60;50.90;;;;;;4992951;28;19929;-91
2023/03/23 11:13:12;;;;;;;;;;;21.80;52.50;;;;;;4993483;28;19917;-90
2023/03/23 11:15:39;;;;;;;;;;;21.30;54.00;;;;;;4993469;28;19921;-90
2023/03/23 11:18:07;;;;;;;;;;;20.80;55.10;;;;;;5008822;28;19967;-91
2023/03/23 11:20:43;;;;;;;;;;;20.30;55.70;;;;;;5010185;28;19918;-91
2023/03/23 11:23:11;;;;;;;;;;;19.80;56.20;;;;;;5010961;28;19914;-88
2023/03/23 11:25:54;;;;;;;;;;;19.30;57.10;;;;;;5003762;28;19974;-89
2023/03/23 11:28:20;;;;;;;;;;;19.00;58.00;;;;;;5009860;28;19922;-90
2023/03/23 11:30:46;;;;;;;;;;;18.70;58.50;;;;;;4993382;28;19918;-90
2023/03/23 11:33:15;;;;;;;;;;;18.40;59.30;;;;;;4993679;28;19936;-89
2023/03/23 11:35:43;;;;;;;;;;;18.20;59.60;;;;;;5010875;28;19918;-89
2023/03/23 11:38:15;;;;;;;;;;;18.00;60.00;;;;;;5008962;28;19913;-89
2023/03/23 11:40:47;;;;;;;;;;;17.90;61.10;;;;;;4993149;28;19917;-90
2023/03/23 11:43:14;;;;;;;;;;;17.80;61.80;;;;;;5010899;28;20365;-90
2023/03/23 11:45:46;;;;;;;;;;;17.90;62.30;;;;;;4991505;28;19932;-90
2023/03/23 11:48:32;;;;;;;;;;;18.10;62.60;;;;;;4993361;28;19918;-91
2023/03/23 11:51:24;;;;;;;;;;;18.20;62.50;;;;;;4992454;28;20013;-89
2023/03/23 11:53:55;;;;;;;;;;;18.30;62.40;;;;;;4972346;28;20653;-89
2023/03/23 11:56:34;;;;;;;;;;;18.20;62.20;;;;;;4991384;28;19918;-91
2023/03/23 11:59:02;;;;;;;;;;;18.30;62.10;;;;;;4984105;28;20317;-88
2023/03/23 12:01:37;;;;;;;;;;;18.20;61.80;;;;;;5008926;28;19917;-91
2023/03/23 12:04:21;;;;;;;;;;;18.20;62.30;;;;;;4993421;28;19967;-88
2023/03/23 12:06:56;;;;;;;;;;;18.00;62.00;;;;;;5001725;28;19925;-92
2023/03/23 12:09:21;;;;;;;;;;;17.90;62.60;;;;;;4992562;28;19925;-90
2023/03/23 12:12:05;;;;;;;;;;;17.80;62.80;;;;;;5010450;28;19926;-90
2023/03/23 12:14:56;;;;;;;;;;;17.80;63.00;;;;;;4987292;28;19926;-90
2023/03/23 12:17:32;;;;;;;;;;;17.80;63.00;;;;;;4994572;28;20503;-91
2023/03/23 12:20:17;;;;;;;;;;;17.80;62.60;;;;;;5008579;28;20329;-90
2023/03/23 12:22:43;;;;;;;;;;;17.80;62.60;;;;;;4995537;28;19921;-92
2023/03/23 12:25:23;;;;;;;;;;;17.70;62.50;;;;;;5010052;28;20303;-89
2023/03/23 12:27:52;;;;;;;;;;;17.70;62.30;;;;;;4985739;28;19917;-91
2023/03/23 12:30:29;;;;;;;;;;;17.60;62.80;;;;;;4994599;28;20016;-90
2023/03/23 12:33:11;;;;;;;;;;;17.60;63.10;;;;;;5009381;28;20049;-92
2023/03/23 12:36:01;;;;;;;;;;;17.80;63.60;;;;;;5009746;28;19992;-89
2023/03/23 12:38:33;;;;;;;;;;;17.80;63.60;;;;;;5009258;28;19971;-89
2023/03/23 12:41:10;;;;;;;;;;;17.80;63.30;;;;;;5008780;28;19918;-92
2023/03/23 12:43:43;;;;;;;;;;;17.80;62.90;;;;;;5010570;28;19917;-91
2023/03/23 12:46:11;;;;;;;;;;;17.60;63.10;;;;;;5008501;28;19918;-88
2023/03/23 12:48:42;;;;;;;;;;;17.60;63.20;;;;;;4992779;28;20376;-91
2023/03/23 12:51:24;;;;;;;;;;;17.60;63.60;;;;;;5009366;28;19921;-89
2023/03/23 12:53:52;;;;;;;;;;;17.70;63.90;;;;;;5011285;28;20345;-89
2023/03/23 12:56:24;;;;;;;;;;;17.70;63.80;;;;;;5010580;28;19964;-89
2023/03/23 12:58:53;;;;;;;;;;;17.80;64.10;;;;;;5011812;28;19914;-92
2023/03/23 13:01:27;;;;;;;;;;;17.90;64.70;;;;;;4991810;28;19924;-89
2023/03/23 13:03:56;;;;;;;;;;;18.10;64.40;;;;;;4992238;28;19919;-91
2023/03/23 13:06:22;;;;;;;;;;;18.30;64.20;;;;;;5009178;28;20013;-91
2023/03/23 13:08:48;;;;;;;;;;;18.60;64.00;;;;;;4993227;28;20016;-90
2023/03/23 13:11:19;;;;;;;;;;;18.80;64.00;;;;;;4990799;28;19929;-92
2023/03/23 13:13:56;;;;;;;;;;;19.10;63.10;;;;;;4994440;28;19914;-88
2023/03/23 13:16:42;;;;;;;;;;;19.30;63.10;;;;;;5010569;28;20300;-90
2023/03/23 13:19:13;;;;;;;;;;;19.40;63.00;;;;;;4962108;28;19921;-89
2023/03/23 13:21:45;;;;;;;;;;;19.40;62.50;;;;;;4991445;28;19914;-91
2023/03/23 13:24:13;;;;;;;;;;;19.50;62.50;;;;;;5008250;28;19918;-89
2023/03/23 13:26:40;;;;;;;;;;;19.30;62.70;;;;;;5009868;28;19914;-90
2023/03/23 13:29:08;;;;;;;;;;;19.20;62.50;;;;;;5009696;28;19932;-91
2023/03/23 13:31:39;;;;;;;;;;;19.20;63.00;;;;;;5006165;28;19917;-90
2023/03/23 13:34:22;;;;;;;;;;;19.30;63.30;;;;;;4991657;28;19913;-91
2023/03/23 13:36:53;;;;;;;;;;;19.30;63.00;;;;;;5010611;28;20532;-91
2023/03/23 13:39:20;;;;;;;;;;;19.20;63.70;;;;;;5002070;28;19925;-90
2023/03/23 13:41:47;;;;;;;;;;;19.10;63.60;;;;;;5010695;28;19914;-89
2023/03/23 13:44:22;;;;;;;;;;;19.20;64.00;;;;;;5008701;28;19915;-90
2023/03/23 13:46:54;;;;;;;;;;;19.30;63.60;;;;;;5015242;28;19928;-92
2023/03/23 13:49:22;;;;;;;;;;;19.30;64.10;;;;;;5007507;28;19931;-89
2023/03/23 13:51:50;;;;;;;;;;;19.30;63.80;;;;;;5009548;28;19922;-87
2023/03/23 13:54:18;;;;;;;;;;;19.30;63.20;;;;;;5009295;28;20580;-92
2023/03/23 13:57:13;;;;;;;;;;;19.30;63.60;;;;;;5012225;28;19920;-89
2023/03/23 13:59:58;;;;;;;;;;;19.40;63.40;;;;;;4956408;28;19961;-92
2023/03/23 14:02:33;;;;;;;;;;;19.30;63.40;;;;;;4999346;28;19914;-89
2023/03/23 14:05:28;;;;;;;;;;;19.30;63.00;;;;;;5012700;28;19941;-89
2023/03/23 14:07:55;;;;;;;;;;;19.40;63.40;;;;;;4988682;28;19968;-91
2023/03/23 14:10:21;;;;;;;;;;;19.60;63.50;;;;;;4997389;28;19925;-89
2023/03/23 14:12:49;;;;;;;;;;;19.70;63.60;;;;;;5010510;28;20143;-89
2023/03/23 14:15:15;;;;;;;;;;;19.70;63.30;;;;;;4993355;28;19957;-90
2023/03/23 14:17:42;;;;;;;;;;;19.80;63.60;;;;;;5007653;28;19956;-93
2023/03/23 14:20:17;;;;;;;;;;;19.70;63.50;;;;;;5012888;28;19921;-88
2023/03/23 14:22:44;;;;;;;;;;;19.60;62.70;;;;;;4992226;28;19913;-90
2023/03/23 14:25:14;;;;;;;;;;;19.50;62.90;;;;;;4993814;28;19942;-92